Prairie Home, Missouri
Current Conditions -  °F | °C
As of 7:35 PM on Thursday 27 Nov 2014 (Local Time) from KVER Reporting Station
Clear Clear  
Wind Chill: 30°   Ceiling: Unl
Heat Index: 30°   Visibility: 10mi
Dew Point: 24°   Wind: 3mph
Humidity: 76%   Direction: 100°E
Pressure: 30.4"   Gusts: NA
Location:  38.81°N, 92.59°W
Report Text: KVER 280135Z AUTO 10003KT 10SM CLR M01/M05 A3040 RMK AO2 T10091046
Loading
Personal Weather Stations






























Interactive Weather Map New forecast layout! Learn more

10-Day Weather Forecast

Advertisements
Track Severe Weather on mobile